createdAt,value
2018-12-23T00:00:13.999Z,11.30
2018-12-23T00:04:16.331Z,11.50
2018-12-23T00:08:18.648Z,12.30
2018-12-23T00:12:20.998Z,11.90
2018-12-23T00:16:23.300Z,11.60
2018-12-23T00:20:25.613Z,10.80
2018-12-23T00:24:28.070Z,11.10
2018-12-23T00:28:30.447Z,10.50
2018-12-23T00:32:33.073Z,10.20
2018-12-23T00:36:35.408Z,9.50
2018-12-23T00:40:37.725Z,9.70
2018-12-23T00:44:40.002Z,9.70
2018-12-23T00:48:42.347Z,9.90
2018-12-23T00:52:44.690Z,10.50
2018-12-23T00:56:47.003Z,10.60
2018-12-23T01:00:49.333Z,11.00
2018-12-23T01:04:51.679Z,11.20
2018-12-23T01:08:54.086Z,11.00
2018-12-23T01:12:56.444Z,10.90
2018-12-23T01:16:58.795Z,11.60
2018-12-23T01:21:01.178Z,11.70
2018-12-23T01:25:04.112Z,10.80
2018-12-23T01:29:06.548Z,10.40
2018-12-23T01:33:08.916Z,11.20
2018-12-23T01:37:11.230Z,11.50
2018-12-23T01:41:13.606Z,10.30
2018-12-23T01:45:15.935Z,11.30
2018-12-23T01:49:18.390Z,11.70
2018-12-23T01:53:20.739Z,11.70
2018-12-23T01:57:23.089Z,11.80
2018-12-23T02:01:25.432Z,11.70
2018-12-23T02:05:27.800Z,11.50
2018-12-23T02:09:30.120Z,11.70
2018-12-23T02:13:32.425Z,11.60
2018-12-23T02:17:34.777Z,11.70
2018-12-23T02:21:37.130Z,11.60
2018-12-23T02:25:39.513Z,11.30
2018-12-23T02:29:41.955Z,11.70
2018-12-23T02:33:44.253Z,11.80
2018-12-23T02:37:46.609Z,11.30
2018-12-23T02:41:48.892Z,11.10
2018-12-23T02:45:51.258Z,11.70
2018-12-23T02:49:53.592Z,11.80
2018-12-23T02:53:55.913Z,12.00
2018-12-23T02:57:58.202Z,11.90
2018-12-23T03:02:00.634Z,12.20
2018-12-23T03:06:06.069Z,11.60
2018-12-23T03:10:05.648Z,11.50
2018-12-23T03:14:08.056Z,11.10
2018-12-23T03:18:10.439Z,11.20
2018-12-23T03:22:12.738Z,11.30
2018-12-23T03:26:15.027Z,10.50
2018-12-23T03:30:17.431Z,11.00
2018-12-23T03:34:19.782Z,10.80
2018-12-23T03:38:22.116Z,11.10
2018-12-23T03:42:24.478Z,10.80
2018-12-23T03:46:26.826Z,11.40
2018-12-23T03:50:29.192Z,11.70
2018-12-23T03:54:31.528Z,11.40
2018-12-23T03:58:33.900Z,11.60
2018-12-23T04:02:36.211Z,11.40
2018-12-23T04:06:38.624Z,11.40
2018-12-23T04:10:41.011Z,11.60
2018-12-23T04:14:43.404Z,11.50
2018-12-23T04:18:45.761Z,10.40
2018-12-23T04:22:48.155Z,10.70
2018-12-23T04:26:50.601Z,10.30
2018-12-23T04:30:52.969Z,10.60
2018-12-23T04:34:55.302Z,10.30
2018-12-23T04:38:57.637Z,11.10
2018-12-23T04:43:00.060Z,11.00
2018-12-23T04:47:02.368Z,10.60
2018-12-23T04:51:04.747Z,11.00
2018-12-23T04:55:07.105Z,11.00
2018-12-23T04:59:09.449Z,11.40
2018-12-23T05:03:11.793Z,11.10
2018-12-23T05:07:14.193Z,10.30
2018-12-23T05:11:16.562Z,11.00
2018-12-23T05:15:18.891Z,10.70
2018-12-23T05:19:21.200Z,10.40
2018-12-23T05:23:23.562Z,11.00
2018-12-23T05:27:25.875Z,11.50
2018-12-23T05:31:28.259Z,12.00
2018-12-23T05:35:30.598Z,11.70
2018-12-23T05:39:32.897Z,10.50
2018-12-23T05:43:35.246Z,11.30
2018-12-23T05:47:37.555Z,11.70
2018-12-23T05:51:39.882Z,11.60
2018-12-23T05:55:41.151Z,11.90
2018-12-23T05:59:43.530Z,11.00
2018-12-23T06:03:45.871Z,11.40
2018-12-23T06:07:48.190Z,11.50
2018-12-23T06:11:50.555Z,11.50
2018-12-23T06:15:53.035Z,11.60
2018-12-23T06:19:55.348Z,12.20
2018-12-23T06:23:57.774Z,12.10
2018-12-23T06:28:00.151Z,11.90
2018-12-23T06:32:02.506Z,11.80
2018-12-23T06:36:04.805Z,12.00
2018-12-23T06:40:07.188Z,12.00
2018-12-23T06:44:09.505Z,11.60
2018-12-23T06:48:11.860Z,11.90
2018-12-23T06:52:14.294Z,11.70
2018-12-23T06:56:16.808Z,11.40
2018-12-23T07:00:19.274Z,11.70
2018-12-23T07:04:21.601Z,11.40
2018-12-23T07:08:23.984Z,11.40
2018-12-23T07:12:26.386Z,11.80
2018-12-23T07:16:28.705Z,11.60
2018-12-23T07:20:31.123Z,10.30
2018-12-23T07:24:33.536Z,11.30
2018-12-23T07:28:35.970Z,11.30
2018-12-23T07:32:38.370Z,10.90
2018-12-23T07:36:49.338Z,11.50
2018-12-23T07:40:43.135Z,10.80
2018-12-23T07:44:45.534Z,11.20
2018-12-23T07:48:47.881Z,11.30
2018-12-23T07:52:50.318Z,10.80
2018-12-23T07:56:52.720Z,11.10
2018-12-23T08:00:55.069Z,11.30
2018-12-23T08:04:57.458Z,10.40
2018-12-23T08:08:59.824Z,11.30
2018-12-23T08:13:02.228Z,11.00
2018-12-23T08:17:04.669Z,11.40
2018-12-23T08:21:07.042Z,12.10
2018-12-23T08:25:09.490Z,12.00
2018-12-23T08:29:11.843Z,11.70
2018-12-23T08:33:14.192Z,11.30
2018-12-23T08:37:16.657Z,11.40
2018-12-23T08:41:19.023Z,12.40
2018-12-23T08:45:21.395Z,11.10
2018-12-23T08:49:23.797Z,11.90
2018-12-23T08:53:26.198Z,12.10
2018-12-23T08:57:28.774Z,11.50
2018-12-23T09:01:31.117Z,11.40
2018-12-23T09:05:33.407Z,12.30
2018-12-23T09:09:36.130Z,11.70
2018-12-23T09:13:38.522Z,11.00
2018-12-23T09:17:40.895Z,11.90
2018-12-23T09:21:43.248Z,11.60
2018-12-23T09:25:45.597Z,11.90
2018-12-23T09:29:47.963Z,12.20
2018-12-23T09:33:50.364Z,11.60
2018-12-23T09:38:01.033Z,11.80
2018-12-23T09:41:55.517Z,11.90
2018-12-23T09:45:57.882Z,12.60
2018-12-23T09:50:00.269Z,11.40
2018-12-23T09:54:02.617Z,12.50
2018-12-23T09:58:05.097Z,12.40
2018-12-23T10:02:07.443Z,12.40
2018-12-23T10:06:09.844Z,11.70
2018-12-23T10:10:12.238Z,12.70
2018-12-23T10:14:14.932Z,12.30
2018-12-23T10:18:17.352Z,12.10
2018-12-23T10:22:19.697Z,12.80
2018-12-23T10:26:22.068Z,12.40
2018-12-23T10:30:24.473Z,12.50
2018-12-23T10:34:26.878Z,12.60
2018-12-23T10:38:29.242Z,13.20
2018-12-23T10:42:31.664Z,13.10
2018-12-23T10:46:34.016Z,12.50
2018-12-23T10:50:36.344Z,12.60
2018-12-23T10:54:38.748Z,11.80
2018-12-23T10:58:41.109Z,12.80
2018-12-23T11:02:43.514Z,11.70
2018-12-23T11:06:45.849Z,12.30
2018-12-23T11:10:48.188Z,12.00
2018-12-23T11:14:50.624Z,12.70
2018-12-23T11:18:52.997Z,12.60
2018-12-23T11:22:55.363Z,13.10
2018-12-23T11:26:57.660Z,12.20
2018-12-23T11:31:00.069Z,12.60
2018-12-23T11:35:02.450Z,13.40
2018-12-23T11:39:06.927Z,12.90
2018-12-23T11:43:09.327Z,12.70
2018-12-23T11:47:11.686Z,13.20
2018-12-23T11:51:14.189Z,12.00
2018-12-23T11:55:16.425Z,12.80
2018-12-23T11:59:18.726Z,12.70
2018-12-23T12:03:21.152Z,13.00
2018-12-23T12:07:23.528Z,12.70
2018-12-23T12:11:27.239Z,13.40
2018-12-23T12:15:29.666Z,13.00
2018-12-23T12:19:32.646Z,12.30
2018-12-23T12:23:34.983Z,12.80
2018-12-23T12:27:38.006Z,12.90
2018-12-23T12:31:40.411Z,11.70
2018-12-23T12:35:42.705Z,11.90
2018-12-23T12:39:45.053Z,11.70
2018-12-23T12:43:47.386Z,12.10
2018-12-23T12:47:50.468Z,12.50
2018-12-23T12:51:52.782Z,12.30
2018-12-23T12:55:55.316Z,12.30
2018-12-23T12:59:57.858Z,11.20
2018-12-23T13:04:01.502Z,11.00
2018-12-23T13:08:03.896Z,10.50
2018-12-23T13:12:06.421Z,10.70
2018-12-23T13:16:08.869Z,11.30
2018-12-23T13:20:11.432Z,11.40
2018-12-23T13:24:13.791Z,11.40
2018-12-23T13:28:16.589Z,10.70
2018-12-23T13:32:19.319Z,11.00
2018-12-23T13:36:24.213Z,11.20
2018-12-23T13:40:38.977Z,11.70
2018-12-23T13:46:56.931Z,12.10
2018-12-23T13:51:27.541Z,12.40
2018-12-23T13:55:38.245Z,13.10
2018-12-23T13:59:57.267Z,13.20
2018-12-23T14:05:13.956Z,13.30
2018-12-23T14:10:31.271Z,13.00
2018-12-23T14:14:34.300Z,12.50
2018-12-23T14:18:38.886Z,12.60
2018-12-23T14:22:43.167Z,13.00
2018-12-23T14:26:45.751Z,13.30
2018-12-23T14:30:48.492Z,12.20
2018-12-23T14:34:50.906Z,12.80
2018-12-23T14:38:55.601Z,12.80
2018-12-23T14:42:58.460Z,12.80
2018-12-23T14:47:03.177Z,12.00
2018-12-23T14:51:06.672Z,13.00
2018-12-23T14:55:09.136Z,12.60
2018-12-23T14:59:12.507Z,12.30
2018-12-23T15:03:14.954Z,12.60
2018-12-23T15:07:18.763Z,12.40
2018-12-23T15:11:21.362Z,12.60
2018-12-23T15:15:25.381Z,12.90
2018-12-23T15:19:27.919Z,12.50
2018-12-23T15:23:30.350Z,12.40
2018-12-23T15:27:34.461Z,12.40
2018-12-23T15:31:36.911Z,12.30
2018-12-23T15:35:42.395Z,11.90
2018-12-23T15:39:44.875Z,12.30
2018-12-23T15:43:47.941Z,12.30
2018-12-23T15:47:50.486Z,12.40
2018-12-23T15:51:52.845Z,12.50
2018-12-23T15:55:55.552Z,12.00
2018-12-23T15:59:58.571Z,12.30
2018-12-23T16:04:01.023Z,12.10
2018-12-23T16:08:03.645Z,12.30
2018-12-23T16:12:08.373Z,11.80
2018-12-23T16:16:10.941Z,10.70
2018-12-23T16:20:14.951Z,11.30
2018-12-23T16:24:17.999Z,11.40
2018-12-23T16:28:21.007Z,11.70
2018-12-23T16:32:24.882Z,11.30
2018-12-23T16:36:27.344Z,11.40
2018-12-23T16:40:30.841Z,11.40
2018-12-23T16:44:33.309Z,11.90
2018-12-23T16:48:36.290Z,11.80
2018-12-23T16:52:38.751Z,11.30
2018-12-23T16:56:41.147Z,11.50
2018-12-23T17:00:44.200Z,11.40
2018-12-23T17:04:46.600Z,11.20
2018-12-23T17:08:48.975Z,11.40
2018-12-23T17:12:51.379Z,11.70
2018-12-23T17:16:53.729Z,12.30
2018-12-23T17:20:56.131Z,12.10
2018-12-23T17:24:58.506Z,12.50
2018-12-23T17:29:00.845Z,11.60
2018-12-23T17:33:03.294Z,12.40
2018-12-23T17:37:05.740Z,12.30
2018-12-23T17:41:08.125Z,12.40
2018-12-23T17:45:10.507Z,12.30
2018-12-23T17:49:12.891Z,12.20
2018-12-23T17:53:15.270Z,12.70
2018-12-23T17:57:17.570Z,12.50
2018-12-23T18:01:19.950Z,12.40
2018-12-23T18:05:22.345Z,12.40
2018-12-23T18:09:24.778Z,12.70
2018-12-23T18:13:27.184Z,13.00
2018-12-23T18:17:29.551Z,13.20
2018-12-23T18:21:31.991Z,11.90
2018-12-23T18:25:34.409Z,11.10
2018-12-23T18:29:36.754Z,11.50
2018-12-23T18:33:39.151Z,11.60
2018-12-23T18:37:41.665Z,11.50
2018-12-23T18:41:44.154Z,11.20
2018-12-23T18:45:47.191Z,11.20
2018-12-23T18:49:49.594Z,11.00
2018-12-23T18:53:52.581Z,10.90
2018-12-23T18:57:55.005Z,10.90
2018-12-23T19:02:02.706Z,11.20
2018-12-23T19:06:07.194Z,11.60
2018-12-23T19:10:17.589Z,11.50
2018-12-23T19:14:31.247Z,11.60
2018-12-23T19:18:53.955Z,11.70
2018-12-23T19:23:07.647Z,11.70
2018-12-23T19:27:21.370Z,11.80
2018-12-23T19:31:35.921Z,11.70
2018-12-23T19:35:49.355Z,12.20
2018-12-23T19:42:05.639Z,12.30
2018-12-23T19:46:35.072Z,11.80
2018-12-23T19:50:55.683Z,12.30
2018-12-23T19:55:18.488Z,12.20
2018-12-23T20:00:30.450Z,11.80
2018-12-23T20:05:50.349Z,12.00
2018-12-23T20:10:07.550Z,11.80
2018-12-23T20:15:30.499Z,12.00
2018-12-23T20:20:19.703Z,12.20
2018-12-23T20:24:33.797Z,12.20
2018-12-23T20:30:58.630Z,12.00
2018-12-23T20:35:14.961Z,11.90
2018-12-23T20:39:31.330Z,12.40
2018-12-23T20:45:48.139Z,12.80
2018-12-23T20:50:01.336Z,12.90
2018-12-23T20:56:22.558Z,13.90
2018-12-23T21:01:38.935Z,13.30
2018-12-23T21:05:52.373Z,13.30
2018-12-23T21:10:16.858Z,12.90
2018-12-23T21:14:31.028Z,13.50
2018-12-23T21:19:05.831Z,14.00
2018-12-23T21:24:18.248Z,13.70
2018-12-23T21:28:38.823Z,13.90
2018-12-23T21:32:52.434Z,12.90
2018-12-23T21:37:07.784Z,12.60
2018-12-23T21:41:24.508Z,12.90
2018-12-23T21:46:05.202Z,13.50
2018-12-23T21:50:17.648Z,12.70
2018-12-23T21:56:34.263Z,13.20
2018-12-23T22:00:51.595Z,12.60
2018-12-23T22:05:08.808Z,12.70
2018-12-23T22:10:25.143Z,12.40
2018-12-23T22:14:28.075Z,12.50
2018-12-23T22:18:30.621Z,12.50
2018-12-23T22:22:32.976Z,13.50
2018-12-23T22:26:35.333Z,13.50
2018-12-23T22:30:37.782Z,13.30
2018-12-23T22:34:40.902Z,13.00
2018-12-23T22:38:43.270Z,12.50
2018-12-23T22:42:45.898Z,12.80
2018-12-23T22:46:48.984Z,13.00
2018-12-23T22:50:51.287Z,13.40
2018-12-23T22:54:53.672Z,12.30
2018-12-23T22:58:56.246Z,12.80
2018-12-23T23:02:58.662Z,12.30
2018-12-23T23:07:01.053Z,12.80
2018-12-23T23:11:03.449Z,13.20
2018-12-23T23:15:05.952Z,12.80
2018-12-23T23:19:08.292Z,12.80
2018-12-23T23:23:10.887Z,8.10
2018-12-23T23:27:13.938Z,7.70
2018-12-23T23:31:16.336Z,6.80
2018-12-23T23:35:18.702Z,7.10
2018-12-23T23:39:21.057Z,7.40
2018-12-23T23:43:23.408Z,7.20
2018-12-23T23:47:25.727Z,7.10
2018-12-23T23:51:28.068Z,7.10
2018-12-23T23:55:30.381Z,7.20
2018-12-23T23:59:32.692Z,6.80
